sensor_id;sensor_type;location;lat;lon;timestamp;pressure;altitude;pressure_sealevel;temperature;humidity
30819;BME280;17546;42.674;23.284;2023-02-16T00:00:43;95963.28;;;9.23;40.40
30819;BME280;17546;42.674;23.284;2023-02-16T00:03:14;95968.69;;;9.36;40.06
30819;BME280;17546;42.674;23.284;2023-02-16T00:05:39;95969.00;;;9.29;40.34
30819;BME280;17546;42.674;23.284;2023-02-16T00:08:05;95966.09;;;9.33;40.12
30819;BME280;17546;42.674;23.284;2023-02-16T00:10:32;95971.13;;;9.34;40.36
30819;BME280;17546;42.674;23.284;2023-02-16T00:12:58;95967.63;;;9.34;40.21
30819;BME280;17546;42.674;23.284;2023-02-16T00:15:42;95974.66;;;9.25;40.36
30819;BME280;17546;42.674;23.284;2023-02-16T00:18:16;95963.78;;;9.31;40.05
30819;BME280;17546;42.674;23.284;2023-02-16T00:20:42;95970.84;;;9.41;40.22
30819;BME280;17546;42.674;23.284;2023-02-16T00:23:07;95971.75;;;9.38;40.33
30819;BME280;17546;42.674;23.284;2023-02-16T00:25:33;95964.22;;;9.39;40.08
30819;BME280;17546;42.674;23.284;2023-02-16T00:27:59;95975.28;;;9.29;40.29
30819;BME280;17546;42.674;23.284;2023-02-16T00:30:25;95960.69;;;9.29;40.24
30819;BME280;17546;42.674;23.284;2023-02-16T00:32:50;95964.66;;;9.28;40.20
30819;BME280;17546;42.674;23.284;2023-02-16T00:35:17;95967.47;;;9.37;40.05
30819;BME280;17546;42.674;23.284;2023-02-16T00:37:43;95968.25;;;9.38;39.97
30819;BME280;17546;42.674;23.284;2023-02-16T00:40:10;95972.50;;;9.20;40.21
30819;BME280;17546;42.674;23.284;2023-02-16T00:42:36;95970.81;;;9.23;40.14
30819;BME280;17546;42.674;23.284;2023-02-16T00:45:03;95963.59;;;9.16;40.44
30819;BME280;17546;42.674;23.284;2023-02-16T00:47:37;95962.06;;;9.15;40.58
30819;BME280;17546;42.674;23.284;2023-02-16T00:50:21;95967.28;;;9.22;40.03
30819;BME280;17546;42.674;23.284;2023-02-16T00:52:49;95968.47;;;9.03;40.37
30819;BME280;17546;42.674;23.284;2023-02-16T00:55:17;95969.13;;;9.16;40.50
30819;BME280;17546;42.674;23.284;2023-02-16T00:57:49;95961.75;;;9.13;40.41
30819;BME280;17546;42.674;23.284;2023-02-16T01:00:24;95963.44;;;9.20;40.08
30819;BME280;17546;42.674;23.284;2023-02-16T01:03:10;95956.19;;;9.04;40.33
30819;BME280;17546;42.674;23.284;2023-02-16T01:05:37;95961.28;;;9.15;40.54
30819;BME280;17546;42.674;23.284;2023-02-16T01:08:08;95967.59;;;9.15;40.24
30819;BME280;17546;42.674;23.284;2023-02-16T01:10:52;95956.81;;;9.08;40.39
30819;BME280;17546;42.674;23.284;2023-02-16T01:13:44;95952.97;;;9.05;40.32
30819;BME280;17546;42.674;23.284;2023-02-16T01:16:37;95955.59;;;9.18;40.06
30819;BME280;17546;42.674;23.284;2023-02-16T01:19:03;95959.28;;;9.15;39.92
30819;BME280;17546;42.674;23.284;2023-02-16T01:21:29;95957.13;;;9.19;39.82
30819;BME280;17546;42.674;23.284;2023-02-16T01:23:54;95942.72;;;9.15;39.76
30819;BME280;17546;42.674;23.284;2023-02-16T01:26:20;95941.13;;;9.05;39.90
30819;BME280;17546;42.674;23.284;2023-02-16T01:28:46;95932.22;;;9.10;39.83
30819;BME280;17546;42.674;23.284;2023-02-16T01:31:13;95945.59;;;9.02;39.99
30819;BME280;17546;42.674;23.284;2023-02-16T01:33:40;95937.31;;;9.02;40.08
30819;BME280;17546;42.674;23.284;2023-02-16T01:36:25;95930.53;;;8.94;40.07
30819;BME280;17546;42.674;23.284;2023-02-16T01:38:52;95928.19;;;8.93;40.07
30819;BME280;17546;42.674;23.284;2023-02-16T01:44:15;95925.63;;;8.98;40.13
30819;BME280;17546;42.674;23.284;2023-02-16T01:46:48;95930.66;;;8.90;40.08
30819;BME280;17546;42.674;23.284;2023-02-16T01:49:23;95921.59;;;8.90;40.22
30819;BME280;17546;42.674;23.284;2023-02-16T01:54:42;95924.53;;;8.86;40.09
30819;BME280;17546;42.674;23.284;2023-02-16T02:03:00;95910.63;;;8.59;40.53
30819;BME280;17546;42.674;23.284;2023-02-16T02:05:49;95915.16;;;8.43;40.56
30819;BME280;17546;42.674;23.284;2023-02-16T02:11:19;95919.75;;;8.46;40.60
30819;BME280;17546;42.674;23.284;2023-02-16T02:13:51;95925.59;;;8.48;40.47
30819;BME280;17546;42.674;23.284;2023-02-16T02:16:24;95921.31;;;8.47;40.70
30819;BME280;17546;42.674;23.284;2023-02-16T02:18:50;95912.84;;;8.42;40.74
30819;BME280;17546;42.674;23.284;2023-02-16T02:27:36;95916.44;;;8.52;40.19
30819;BME280;17546;42.674;23.284;2023-02-16T02:36:03;95901.28;;;8.34;40.61
30819;BME280;17546;42.674;23.284;2023-02-16T02:38:49;95904.66;;;8.29;40.67
30819;BME280;17546;42.674;23.284;2023-02-16T02:44:19;95913.69;;;8.30;40.95
30819;BME280;17546;42.674;23.284;2023-02-16T02:46:45;95913.81;;;8.26;40.70
30819;BME280;17546;42.674;23.284;2023-02-16T02:49:11;95908.50;;;8.32;40.57
30819;BME280;17546;42.674;23.284;2023-02-16T02:51:37;95907.97;;;8.24;40.88
30819;BME280;17546;42.674;23.284;2023-02-16T02:54:12;95912.47;;;8.31;40.61
30819;BME280;17546;42.674;23.284;2023-02-16T02:56:58;95912.94;;;8.29;40.69
30819;BME280;17546;42.674;23.284;2023-02-16T02:59:52;95918.91;;;8.27;40.47
30819;BME280;17546;42.674;23.284;2023-02-16T03:02:39;95918.38;;;8.20;40.74
30819;BME280;17546;42.674;23.284;2023-02-16T03:05:08;95919.03;;;8.24;40.52
30819;BME280;17546;42.674;23.284;2023-02-16T03:07:36;95927.63;;;8.26;40.54
30819;BME280;17546;42.674;23.284;2023-02-16T03:10:26;95919.94;;;8.21;40.65
30819;BME280;17546;42.674;23.284;2023-02-16T03:13:16;95924.56;;;8.24;40.66
30819;BME280;17546;42.674;23.284;2023-02-16T03:15:45;95915.16;;;8.43;40.06
30819;BME280;17546;42.674;23.284;2023-02-16T03:18:13;95917.31;;;8.17;40.90
30819;BME280;17546;42.674;23.284;2023-02-16T03:21:00;95917.19;;;8.21;40.72
30819;BME280;17546;42.674;23.284;2023-02-16T03:23:47;95911.97;;;8.23;40.50
30819;BME280;17546;42.674;23.284;2023-02-16T03:26:34;95913.03;;;8.16;40.61
30819;BME280;17546;42.674;23.284;2023-02-16T03:29:20;95907.63;;;8.13;40.86
30819;BME280;17546;42.674;23.284;2023-02-16T03:31:51;95897.84;;;8.21;40.69
30819;BME280;17546;42.674;23.284;2023-02-16T03:34:19;95902.94;;;8.22;40.65
30819;BME280;17546;42.674;23.284;2023-02-16T03:36:48;95908.13;;;8.20;40.64
30819;BME280;17546;42.674;23.284;2023-02-16T03:39:15;95899.34;;;8.13;40.44
30819;BME280;17546;42.674;23.284;2023-02-16T03:41:51;95902.38;;;8.05;40.73
30819;BME280;17546;42.674;23.284;2023-02-16T03:44:18;95903.91;;;8.06;40.70
30819;BME280;17546;42.674;23.284;2023-02-16T03:46:44;95903.66;;;8.14;40.53
30819;BME280;17546;42.674;23.284;2023-02-16T03:49:10;95906.03;;;8.02;40.93
30819;BME280;17546;42.674;23.284;2023-02-16T03:51:35;95910.03;;;8.01;41.08
30819;BME280;17546;42.674;23.284;2023-02-16T03:54:01;95909.97;;;7.92;40.98
30819;BME280;17546;42.674;23.284;2023-02-16T03:56:27;95908.78;;;8.02;40.99
30819;BME280;17546;42.674;23.284;2023-02-16T03:58:52;95907.84;;;7.96;41.03
30819;BME280;17546;42.674;23.284;2023-02-16T04:01:18;95910.66;;;8.05;40.73
30819;BME280;17546;42.674;23.284;2023-02-16T04:03:43;95897.63;;;8.06;40.75
30819;BME280;17546;42.674;23.284;2023-02-16T04:06:09;95905.09;;;7.96;40.92
30819;BME280;17546;42.674;23.284;2023-02-16T04:08:35;95900.31;;;8.19;40.35
30819;BME280;17546;42.674;23.284;2023-02-16T04:11:00;95894.91;;;8.15;40.50
30819;BME280;17546;42.674;23.284;2023-02-16T04:13:46;95895.06;;;8.12;40.50
30819;BME280;17546;42.674;23.284;2023-02-16T04:16:11;95893.88;;;8.22;40.30
30819;BME280;17546;42.674;23.284;2023-02-16T04:18:37;95898.19;;;8.23;40.45
30819;BME280;17546;42.674;23.284;2023-02-16T04:21:02;95894.94;;;8.24;40.04
30819;BME280;17546;42.674;23.284;2023-02-16T04:23:28;95892.34;;;8.21;39.88
30819;BME280;17546;42.674;23.284;2023-02-16T04:25:53;95888.66;;;8.24;40.00
30819;BME280;17546;42.674;23.284;2023-02-16T04:28:18;95891.50;;;8.11;39.99
30819;BME280;17546;42.674;23.284;2023-02-16T04:30:44;95889.56;;;8.21;40.06
30819;BME280;17546;42.674;23.284;2023-02-16T04:33:09;95892.47;;;8.17;40.17
30819;BME280;17546;42.674;23.284;2023-02-16T04:35:35;95898.91;;;8.14;40.08
30819;BME280;17546;42.674;23.284;2023-02-16T04:38:00;95898.38;;;8.06;40.09
30819;BME280;17546;42.674;23.284;2023-02-16T04:40:25;95893.19;;;8.08;40.31
30819;BME280;17546;42.674;23.284;2023-02-16T04:42:51;95899.66;;;8.15;40.35
30819;BME280;17546;42.674;23.284;2023-02-16T04:45:16;95901.41;;;7.99;40.39
30819;BME280;17546;42.674;23.284;2023-02-16T04:47:42;95897.75;;;8.02;40.49
30819;BME280;17546;42.674;23.284;2023-02-16T04:50:08;95895.59;;;7.97;40.56
30819;BME280;17546;42.674;23.284;2023-02-16T04:52:34;95900.25;;;8.10;40.16
30819;BME280;17546;42.674;23.284;2023-02-16T04:55:01;95902.50;;;8.02;40.41
30819;BME280;17546;42.674;23.284;2023-02-16T04:57:26;95910.66;;;8.05;40.50
30819;BME280;17546;42.674;23.284;2023-02-16T04:59:52;95904.97;;;7.78;40.67
30819;BME280;17546;42.674;23.284;2023-02-16T05:02:17;95915.13;;;7.81;40.95
30819;BME280;17546;42.674;23.284;2023-02-16T05:04:43;95906.69;;;7.84;40.73
30819;BME280;17546;42.674;23.284;2023-02-16T05:07:08;95907.72;;;7.78;40.65
30819;BME280;17546;42.674;23.284;2023-02-16T05:09:34;95911.78;;;7.86;40.71
30819;BME280;17546;42.674;23.284;2023-02-16T05:11:59;95916.53;;;7.85;40.82
30819;BME280;17546;42.674;23.284;2023-02-16T05:14:43;95915.94;;;7.69;40.82
30819;BME280;17546;42.674;23.284;2023-02-16T05:19:38;95921.28;;;7.63;41.22
30819;BME280;17546;42.674;23.284;2023-02-16T05:22:05;95922.75;;;7.77;40.98
30819;BME280;17546;42.674;23.284;2023-02-16T05:24:30;95918.59;;;7.72;40.88
30819;BME280;17546;42.674;23.284;2023-02-16T05:26:56;95895.59;;;7.53;40.60
30819;BME280;17546;42.674;23.284;2023-02-16T05:29:22;95927.81;;;7.78;40.86
30819;BME280;17546;42.674;23.284;2023-02-16T05:31:48;95923.94;;;7.76;41.03
30819;BME280;17546;42.674;23.284;2023-02-16T05:34:15;95929.78;;;7.78;40.69
30819;BME280;17546;42.674;23.284;2023-02-16T05:36:40;95924.41;;;7.74;40.82
30819;BME280;17546;42.674;23.284;2023-02-16T05:39:06;95923.94;;;7.76;40.84
30819;BME280;17546;42.674;23.284;2023-02-16T05:41:31;95930.44;;;7.82;40.76
30819;BME280;17546;42.674;23.284;2023-02-16T05:44:01;95929.88;;;7.87;40.34
30819;BME280;17546;42.674;23.284;2023-02-16T05:46:28;95937.19;;;7.81;40.61
30819;BME280;17546;42.674;23.284;2023-02-16T05:49:12;95931.34;;;7.79;40.88
30819;BME280;17546;42.674;23.284;2023-02-16T05:51:38;95941.78;;;7.84;40.64
30819;BME280;17546;42.674;23.284;2023-02-16T05:54:04;95946.72;;;7.89;40.72
30819;BME280;17546;42.674;23.284;2023-02-16T05:56:30;95932.81;;;7.93;40.92
30819;BME280;17546;42.674;23.284;2023-02-16T05:58:58;95944.63;;;7.93;40.60
30819;BME280;17546;42.674;23.284;2023-02-16T06:01:25;95941.53;;;7.91;40.94
30819;BME280;17546;42.674;23.284;2023-02-16T06:03:50;95950.34;;;7.99;40.35
30819;BME280;17546;42.674;23.284;2023-02-16T06:06:16;95952.13;;;7.93;40.71
30819;BME280;17546;42.674;23.284;2023-02-16T06:08:43;95946.53;;;8.05;40.54
30819;BME280;17546;42.674;23.284;2023-02-16T06:11:09;95954.88;;;8.15;40.28
30819;BME280;17546;42.674;23.284;2023-02-16T06:14:18;95955.97;;;7.95;40.85
30819;BME280;17546;42.674;23.284;2023-02-16T06:16:46;95962.06;;;7.90;41.24
30819;BME280;17546;42.674;23.284;2023-02-16T06:19:17;95962.19;;;7.64;41.67
30819;BME280;17546;42.674;23.284;2023-02-16T06:21:43;95968.53;;;7.52;41.85
30819;BME280;17546;42.674;23.284;2023-02-16T06:24:11;95966.97;;;7.51;41.79
30819;BME280;17546;42.674;23.284;2023-02-16T06:26:37;95962.28;;;7.39;41.91
30819;BME280;17546;42.674;23.284;2023-02-16T06:29:03;95964.06;;;7.33;42.49
30819;BME280;17546;42.674;23.284;2023-02-16T06:31:29;95974.97;;;7.36;42.50
30819;BME280;17546;42.674;23.284;2023-02-16T06:33:55;95967.91;;;7.35;42.33
30819;BME280;17546;42.674;23.284;2023-02-16T06:36:21;95973.28;;;7.04;43.50
30819;BME280;17546;42.674;23.284;2023-02-16T06:38:47;95973.31;;;6.78;43.13
30819;BME280;17546;42.674;23.284;2023-02-16T06:41:13;95972.97;;;6.76;43.63
30819;BME280;17546;42.674;23.284;2023-02-16T06:43:56;95972.41;;;6.94;43.07
30819;BME280;17546;42.674;23.284;2023-02-16T06:46:22;95967.13;;;7.00;43.48
30819;BME280;17546;42.674;23.284;2023-02-16T06:48:47;95980.31;;;7.05;43.52
30819;BME280;17546;42.674;23.284;2023-02-16T06:51:16;95979.78;;;7.10;43.79
30819;BME280;17546;42.674;23.284;2023-02-16T06:53:41;95977.78;;;7.23;43.61
30819;BME280;17546;42.674;23.284;2023-02-16T06:56:07;95981.81;;;7.32;43.78
30819;BME280;17546;42.674;23.284;2023-02-16T06:58:32;95973.19;;;7.42;43.52
30819;BME280;17546;42.674;23.284;2023-02-16T07:00:57;95983.53;;;7.51;42.96
30819;BME280;17546;42.674;23.284;2023-02-16T07:03:23;95985.09;;;7.52;42.99
30819;BME280;17546;42.674;23.284;2023-02-16T07:05:49;95974.94;;;7.71;42.77
30819;BME280;17546;42.674;23.284;2023-02-16T07:08:14;95965.34;;;7.76;42.85
30819;BME280;17546;42.674;23.284;2023-02-16T07:10:43;95960.53;;;7.89;42.79
30819;BME280;17546;42.674;23.284;2023-02-16T07:13:09;95961.22;;;8.02;42.37
30819;BME280;17546;42.674;23.284;2023-02-16T07:15:34;95962.56;;;8.20;42.30
30819;BME280;17546;42.674;23.284;2023-02-16T07:18:00;95958.31;;;8.28;42.11
30819;BME280;17546;42.674;23.284;2023-02-16T07:20:26;95954.06;;;8.36;41.94
30819;BME280;17546;42.674;23.284;2023-02-16T07:22:55;95951.88;;;8.31;41.84
30819;BME280;17546;42.674;23.284;2023-02-16T07:25:21;95943.00;;;8.58;41.60
30819;BME280;17546;42.674;23.284;2023-02-16T07:27:46;95938.25;;;8.59;41.60
30819;BME280;17546;42.674;23.284;2023-02-16T07:30:12;95939.03;;;8.68;41.50
30819;BME280;17546;42.674;23.284;2023-02-16T07:32:40;95948.25;;;8.65;41.82
30819;BME280;17546;42.674;23.284;2023-02-16T07:35:06;95944.75;;;8.74;41.35
30819;BME280;17546;42.674;23.284;2023-02-16T07:37:31;95945.78;;;8.67;41.69
30819;BME280;17546;42.674;23.284;2023-02-16T07:39:57;95937.69;;;8.73;41.62
30819;BME280;17546;42.674;23.284;2023-02-16T07:42:22;95940.59;;;8.69;41.94
30819;BME280;17546;42.674;23.284;2023-02-16T07:44:48;95937.78;;;8.29;42.96
30819;BME280;17546;42.674;23.284;2023-02-16T07:47:13;95940.13;;;8.71;41.84
30819;BME280;17546;42.674;23.284;2023-02-16T07:49:39;95935.84;;;8.79;42.25
30819;BME280;17546;42.674;23.284;2023-02-16T07:52:05;95944.75;;;8.74;42.35
30819;BME280;17546;42.674;23.284;2023-02-16T07:54:31;95952.78;;;8.50;42.54
30819;BME280;17546;42.674;23.284;2023-02-16T07:56:57;95951.38;;;7.92;43.91
30819;BME280;17546;42.674;23.284;2023-02-16T07:59:22;95942.66;;;8.47;43.08
30819;BME280;17546;42.674;23.284;2023-02-16T08:01:48;95944.44;;;8.81;42.08
30819;BME280;17546;42.674;23.284;2023-02-16T08:04:13;95953.81;;;8.43;42.72
30819;BME280;17546;42.674;23.284;2023-02-16T08:06:39;95951.16;;;8.08;43.70
30819;BME280;17546;42.674;23.284;2023-02-16T08:09:04;95945.31;;;8.60;42.93
30819;BME280;17546;42.674;23.284;2023-02-16T08:11:30;95957.72;;;9.05;42.21
30819;BME280;17546;42.674;23.284;2023-02-16T08:13:58;95955.25;;;8.57;42.58
30819;BME280;17546;42.674;23.284;2023-02-16T08:16:25;95951.00;;;8.65;42.79
30819;BME280;17546;42.674;23.284;2023-02-16T08:18:53;95947.00;;;9.16;41.60
30819;BME280;17546;42.674;23.284;2023-02-16T08:21:23;95959.59;;;9.17;41.72
30819;BME280;17546;42.674;23.284;2023-02-16T08:24:03;95966.09;;;9.42;41.28
30819;BME280;17546;42.674;23.284;2023-02-16T08:26:36;95967.31;;;9.41;41.38
30819;BME280;17546;42.674;23.284;2023-02-16T08:29:04;95965.47;;;9.47;40.70
30819;BME280;17546;42.674;23.284;2023-02-16T08:31:32;95966.72;;;9.64;40.75
30819;BME280;17546;42.674;23.284;2023-02-16T08:34:00;95955.34;;;9.62;40.46
30819;BME280;17546;42.674;23.284;2023-02-16T08:36:28;95970.25;;;9.92;40.36
30819;BME280;17546;42.674;23.284;2023-02-16T08:38:56;95969.75;;;9.20;41.37
30819;BME280;17546;42.674;23.284;2023-02-16T08:41:27;95967.47;;;9.56;40.63
30819;BME280;17546;42.674;23.284;2023-02-16T08:43:53;95968.25;;;9.56;40.63
30819;BME280;17546;42.674;23.284;2023-02-16T08:46:19;95964.25;;;9.66;40.73
30819;BME280;17546;42.674;23.284;2023-02-16T08:48:45;95961.94;;;9.92;40.26
30819;BME280;17546;42.674;23.284;2023-02-16T08:51:16;95961.94;;;9.37;41.44
30819;BME280;17546;42.674;23.284;2023-02-16T08:53:46;95956.25;;;9.31;41.31
30819;BME280;17546;42.674;23.284;2023-02-16T08:56:12;95965.31;;;9.41;40.98
30819;BME280;17546;42.674;23.284;2023-02-16T08:58:38;95955.34;;;9.62;40.85
30819;BME280;17546;42.674;23.284;2023-02-16T09:01:07;95950.84;;;10.11;39.61
30819;BME280;17546;42.674;23.284;2023-02-16T09:03:37;95955.91;;;10.31;39.75
30819;BME280;17546;42.674;23.284;2023-02-16T09:06:03;95955.88;;;10.40;39.72
30819;BME280;17546;42.674;23.284;2023-02-16T09:08:30;95944.38;;;10.32;39.29
30819;BME280;17546;42.674;23.284;2023-02-16T09:11:01;95950.59;;;10.51;39.42
30819;BME280;17546;42.674;23.284;2023-02-16T09:13:26;95956.03;;;10.46;39.35
30819;BME280;17546;42.674;23.284;2023-02-16T09:15:52;95948.06;;;10.11;39.82
30819;BME280;17546;42.674;23.284;2023-02-16T09:18:17;95946.59;;;10.52;39.27
30819;BME280;17546;42.674;23.284;2023-02-16T09:20:43;95948.28;;;9.80;40.27
30819;BME280;17546;42.674;23.284;2023-02-16T09:23:10;95941.28;;;9.01;41.72
30819;BME280;17546;42.674;23.284;2023-02-16T09:25:37;95951.34;;;9.82;40.54
30819;BME280;17546;42.674;23.284;2023-02-16T09:28:04;95945.44;;;10.35;39.72
30819;BME280;17546;42.674;23.284;2023-02-16T09:30:31;95938.34;;;10.43;40.16
30819;BME280;17546;42.674;23.284;2023-02-16T09:32:59;95942.94;;;10.80;39.29
30819;BME280;17546;42.674;23.284;2023-02-16T09:35:25;95939.28;;;10.73;39.23
30819;BME280;17546;42.674;23.284;2023-02-16T09:37:50;95928.53;;;11.00;38.33
30819;BME280;17546;42.674;23.284;2023-02-16T09:40:16;95931.00;;;10.98;38.56
30819;BME280;17546;42.674;23.284;2023-02-16T09:42:54;95928.44;;;10.61;39.03
30819;BME280;17546;42.674;23.284;2023-02-16T09:45:26;95934.91;;;11.15;38.81
30819;BME280;17546;42.674;23.284;2023-02-16T09:47:53;95929.00;;;11.46;38.30
30819;BME280;17546;42.674;23.284;2023-02-16T09:50:26;95928.44;;;11.18;38.80
30819;BME280;17546;42.674;23.284;2023-02-16T09:53:45;95926.38;;;10.70;39.45
30819;BME280;17546;42.674;23.284;2023-02-16T09:58:42;95908.13;;;12.49;38.30
30819;BME280;17546;42.674;23.284;2023-02-16T10:09:11;95907.53;;;13.10;35.47
30819;BME280;17546;42.674;23.284;2023-02-16T10:12:11;95898.28;;;13.80;34.96
30819;BME280;17546;42.674;23.284;2023-02-16T10:14:50;95895.63;;;14.23;33.95
30819;BME280;17546;42.674;23.284;2023-02-16T10:17:27;95900.63;;;14.45;33.04
30819;BME280;17546;42.674;23.284;2023-02-16T10:22:42;95883.19;;;14.19;32.99
30819;BME280;17546;42.674;23.284;2023-02-16T10:28:04;95888.53;;;14.22;32.65
30819;BME280;17546;42.674;23.284;2023-02-16T10:30:35;95865.28;;;15.00;31.90
30819;BME280;17546;42.674;23.284;2023-02-16T10:35:46;95873.72;;;15.83;31.62
30819;BME280;17546;42.674;23.284;2023-02-16T10:40:54;95868.22;;;16.17;30.27
30819;BME280;17546;42.674;23.284;2023-02-16T10:43:46;95869.56;;;15.56;30.54
30819;BME280;17546;42.674;23.284;2023-02-16T10:46:21;95867.81;;;14.61;31.91
30819;BME280;17546;42.674;23.284;2023-02-16T10:48:54;95868.81;;;14.00;32.87
30819;BME280;17546;42.674;23.284;2023-02-16T10:51:22;95862.28;;;14.35;32.35
30819;BME280;17546;42.674;23.284;2023-02-16T10:53:54;95857.66;;;15.61;30.95
30819;BME280;17546;42.674;23.284;2023-02-16T10:59:22;95843.53;;;15.81;30.13
30819;BME280;17546;42.674;23.284;2023-02-16T11:01:50;95850.88;;;15.73;30.41
30819;BME280;17546;42.674;23.284;2023-02-16T11:04:38;95842.03;;;16.37;29.71
30819;BME280;17546;42.674;23.284;2023-02-16T11:07:05;95841.78;;;16.46;29.70
30819;BME280;17546;42.674;23.284;2023-02-16T11:09:33;95835.16;;;16.49;29.86
30819;BME280;17546;42.674;23.284;2023-02-16T11:12:00;95833.59;;;16.70;29.07
30819;BME280;17546;42.674;23.284;2023-02-16T11:14:29;95827.78;;;15.89;29.84
30819;BME280;17546;42.674;23.284;2023-02-16T11:17:08;95825.25;;;16.48;29.54
30819;BME280;17546;42.674;23.284;2023-02-16T11:19:36;95825.00;;;16.35;29.45
30819;BME280;17546;42.674;23.284;2023-02-16T11:22:03;95814.28;;;16.84;28.88
30819;BME280;17546;42.674;23.284;2023-02-16T11:24:37;95820.44;;;16.31;29.17
30819;BME280;17546;42.674;23.284;2023-02-16T11:27:17;95813.53;;;16.61;29.04
30819;BME280;17546;42.674;23.284;2023-02-16T11:29:43;95813.22;;;15.63;30.10
30819;BME280;17546;42.674;23.284;2023-02-16T11:32:10;95810.75;;;16.44;28.99
30819;BME280;17546;42.674;23.284;2023-02-16T11:34:44;95798.00;;;16.77;28.78
30819;BME280;17546;42.674;23.284;2023-02-16T11:39:47;95797.44;;;16.95;28.73
30819;BME280;17546;42.674;23.284;2023-02-16T11:42:32;95792.44;;;16.54;28.81
30819;BME280;17546;42.674;23.284;2023-02-16T11:45:01;95792.66;;;16.84;28.73
30819;BME280;17546;42.674;23.284;2023-02-16T11:47:33;95798.44;;;17.03;28.66
30819;BME280;17546;42.674;23.284;2023-02-16T11:52:37;95792.34;;;16.99;28.57
30819;BME280;17546;42.674;23.284;2023-02-16T11:55:03;95785.78;;;17.44;28.23
30819;BME280;17546;42.674;23.284;2023-02-16T11:57:32;95783.41;;;17.12;28.31
30819;BME280;17546;42.674;23.284;2023-02-16T12:00:00;95777.13;;;17.47;27.78
30819;BME280;17546;42.674;23.284;2023-02-16T12:05:31;95777.44;;;16.40;28.95
30819;BME280;17546;42.674;23.284;2023-02-16T12:13:16;95758.69;;;16.29;29.05
30819;BME280;17546;42.674;23.284;2023-02-16T12:15:49;95754.97;;;16.97;28.41
30819;BME280;17546;42.674;23.284;2023-02-16T12:26:51;95740.00;;;16.77;28.75
30819;BME280;17546;42.674;23.284;2023-02-16T12:43:45;95722.00;;;16.56;28.85
30819;BME280;17546;42.674;23.284;2023-02-16T12:46:19;95722.19;;;16.74;28.50
30819;BME280;17546;42.674;23.284;2023-02-16T12:51:38;95714.81;;;16.83;28.48
30819;BME280;17546;42.674;23.284;2023-02-16T12:57:02;95705.94;;;17.26;28.23
30819;BME280;17546;42.674;23.284;2023-02-16T12:59:37;95704.91;;;16.70;28.48
30819;BME280;17546;42.674;23.284;2023-02-16T13:02:31;95701.44;;;16.42;28.97
30819;BME280;17546;42.674;23.284;2023-02-16T13:04:59;95696.94;;;16.97;28.21
30819;BME280;17546;42.674;23.284;2023-02-16T13:07:44;95691.91;;;16.84;28.26
30819;BME280;17546;42.674;23.284;2023-02-16T13:10:19;95696.28;;;17.27;28.00
30819;BME280;17546;42.674;23.284;2023-02-16T13:13:11;95688.28;;;16.95;28.10
30819;BME280;17546;42.674;23.284;2023-02-16T13:15:51;95692.13;;;17.39;27.82
30819;BME280;17546;42.674;23.284;2023-02-16T13:18:35;95696.13;;;17.49;27.70
30819;BME280;17546;42.674;23.284;2023-02-16T13:21:13;95690.78;;;17.51;27.74
30819;BME280;17546;42.674;23.284;2023-02-16T13:42:37;95679.47;;;17.63;27.46
30819;BME280;17546;42.674;23.284;2023-02-16T13:45:20;95671.31;;;17.65;27.38
30819;BME280;17546;42.674;23.284;2023-02-16T13:47:47;95674.84;;;17.71;27.40
30819;BME280;17546;42.674;23.284;2023-02-16T13:52:46;95671.78;;;17.69;27.42
30819;BME280;17546;42.674;23.284;2023-02-16T13:55:23;95664.09;;;17.75;27.56
30819;BME280;17546;42.674;23.284;2023-02-16T14:00:36;95661.84;;;17.68;27.51
30819;BME280;17546;42.674;23.284;2023-02-16T14:03:04;95659.53;;;17.72;27.35
30819;BME280;17546;42.674;23.284;2023-02-16T14:05:53;95662.41;;;17.66;27.64
30819;BME280;17546;42.674;23.284;2023-02-16T14:08:22;95662.19;;;17.59;27.65
30819;BME280;17546;42.674;23.284;2023-02-16T14:15:52;95662.66;;;17.63;27.27
30819;BME280;17546;42.674;23.284;2023-02-16T14:18:44;95657.28;;;17.70;27.51
30819;BME280;17546;42.674;23.284;2023-02-16T14:21:40;95659.75;;;17.74;27.44
30819;BME280;17546;42.674;23.284;2023-02-16T14:24:33;95653.44;;;17.68;27.24
30819;BME280;17546;42.674;23.284;2023-02-16T14:27:08;95655.63;;;17.50;27.53
30819;BME280;17546;42.674;23.284;2023-02-16T14:34:51;95656.56;;;17.64;27.43
30819;BME280;17546;42.674;23.284;2023-02-16T14:39:53;95655.06;;;17.58;27.61
30819;BME280;17546;42.674;23.284;2023-02-16T14:42:48;95657.34;;;17.59;27.44
30819;BME280;17546;42.674;23.284;2023-02-16T14:57:17;95653.06;;;17.52;26.96
30819;BME280;17546;42.674;23.284;2023-02-16T14:59:54;95650.22;;;17.58;26.98
30819;BME280;17546;42.674;23.284;2023-02-16T15:02:37;95641.31;;;17.60;27.18
30819;BME280;17546;42.674;23.284;2023-02-16T15:05:19;95653.53;;;17.56;27.27
30819;BME280;17546;42.674;23.284;2023-02-16T15:07:48;95651.34;;;17.44;27.74
30819;BME280;17546;42.674;23.284;2023-02-16T15:10:25;95642.66;;;17.47;27.75
30819;BME280;17546;42.674;23.284;2023-02-16T15:12:53;95647.78;;;17.43;28.01
30819;BME280;17546;42.674;23.284;2023-02-16T15:15:25;95639.63;;;17.45;28.35
30819;BME280;17546;42.674;23.284;2023-02-16T15:17:53;95640.44;;;17.40;28.36
30819;BME280;17546;42.674;23.284;2023-02-16T15:20:25;95648.59;;;17.38;28.34
30819;BME280;17546;42.674;23.284;2023-02-16T15:23:00;95645.63;;;17.25;28.60
30819;BME280;17546;42.674;23.284;2023-02-16T15:25:35;95645.81;;;17.32;28.53
30819;BME280;17546;42.674;23.284;2023-02-16T15:30:36;95648.19;;;17.23;28.46
30819;BME280;17546;42.674;23.284;2023-02-16T15:33:09;95652.56;;;17.18;28.59
30819;BME280;17546;42.674;23.284;2023-02-16T15:35:40;95649.78;;;17.12;28.70
30819;BME280;17546;42.674;23.284;2023-02-16T15:38:18;95657.69;;;17.08;28.93
30819;BME280;17546;42.674;23.284;2023-02-16T15:40:51;95649.06;;;17.06;28.93
30819;BME280;17546;42.674;23.284;2023-02-16T15:43:30;95646.06;;;16.99;28.98
30819;BME280;17546;42.674;23.284;2023-02-16T15:45:58;95650.41;;;16.94;29.06